createdAt,value
2023-01-26T00:00:12.347Z,101056.09
2023-01-26T00:02:57.877Z,101010.94
2023-01-26T00:05:42.069Z,101071.69
2023-01-26T00:08:25.980Z,101080.38
2023-01-26T00:11:12.325Z,101064.81
2023-01-26T00:13:56.706Z,101066.53
2023-01-26T00:16:40.887Z,101065.69
2023-01-26T00:19:26.025Z,101057.88
2023-01-26T00:22:09.846Z,101059.56
2023-01-26T00:24:53.618Z,101052.69
2023-01-26T00:27:37.384Z,101050.06
2023-01-26T00:30:21.839Z,101050.09
2023-01-26T00:33:05.716Z,101045.72
2023-01-26T00:35:56.726Z,101052.69
2023-01-26T00:38:41.153Z,101059.59
2023-01-26T00:41:43.525Z,101050.94
2023-01-26T00:44:27.342Z,101049.19
2023-01-26T00:47:13.085Z,101065.69
2023-01-26T00:49:56.880Z,101044.00
2023-01-26T00:52:42.141Z,101043.13
2023-01-26T00:55:32.342Z,101029.28
2023-01-26T00:58:17.277Z,101025.78
2023-01-26T01:01:01.075Z,101016.25
2023-01-26T01:03:45.089Z,101030.13
2023-01-26T01:06:28.988Z,101013.66
2023-01-26T01:09:14.083Z,101008.44
2023-01-26T01:11:58.011Z,101000.63
2023-01-26T01:14:41.730Z,100995.41
2023-01-26T01:17:25.484Z,100998.03
2023-01-26T01:20:11.950Z,101003.22
2023-01-26T01:22:58.345Z,101005.00
2023-01-26T01:25:46.199Z,100995.44
2023-01-26T01:28:30.079Z,100998.91
2023-01-26T01:31:16.918Z,100995.44
2023-01-26T01:34:00.746Z,100974.63
2023-01-26T01:36:44.604Z,100994.56
2023-01-26T01:39:28.413Z,100976.38
2023-01-26T01:42:13.996Z,100985.06
2023-01-26T01:45:37.303Z,100993.72
2023-01-26T01:48:25.855Z,100991.97
2023-01-26T01:51:17.994Z,100981.59
2023-01-26T01:54:05.808Z,100966.84
2023-01-26T01:56:54.419Z,100987.63
2023-01-26T01:59:39.636Z,100984.16
2023-01-26T02:02:23.456Z,100990.25
2023-01-26T02:05:14.451Z,100985.03
2023-01-26T02:07:58.714Z,100985.00
2023-01-26T02:10:44.931Z,100990.22
2023-01-26T02:13:29.568Z,100945.16
2023-01-26T02:16:14.716Z,100983.31
2023-01-26T02:19:00.381Z,100951.22
2023-01-26T02:21:48.004Z,100973.75
2023-01-26T02:24:38.469Z,100964.22
2023-01-26T02:27:23.643Z,100944.28
2023-01-26T02:30:09.915Z,100948.63
2023-01-26T02:32:54.570Z,100940.75
2023-01-26T02:35:38.508Z,100919.97
2023-01-26T02:38:25.351Z,100861.91
2023-01-26T02:41:12.276Z,100868.00
2023-01-26T02:43:56.403Z,100932.13
2023-01-26T02:46:40.443Z,100926.91
2023-01-26T02:49:41.902Z,100926.03
2023-01-26T02:52:27.795Z,100922.53
2023-01-26T02:55:26.533Z,100917.34
2023-01-26T02:58:10.635Z,100912.16
2023-01-26T03:00:55.866Z,100924.25
2023-01-26T03:03:42.876Z,100898.31
2023-01-26T03:06:26.733Z,100921.59
2023-01-26T03:09:10.566Z,100931.97
2023-01-26T03:11:54.483Z,100930.19
2023-01-26T03:14:38.277Z,100932.75
2023-01-26T03:17:23.510Z,100925.03
2023-01-26T03:20:26.366Z,100926.72
2023-01-26T03:23:36.435Z,100931.06
2023-01-26T03:26:38.381Z,100892.88
2023-01-26T03:29:23.545Z,100909.47
2023-01-26T03:32:09.254Z,100925.94
2023-01-26T03:34:54.714Z,100918.91
2023-01-26T03:37:43.619Z,100911.16
2023-01-26T03:40:50.069Z,100857.41
2023-01-26T03:43:52.136Z,100922.22
2023-01-26T03:46:53.098Z,100926.47
2023-01-26T03:49:54.767Z,100925.47
2023-01-26T03:52:57.319Z,100928.84
2023-01-26T03:55:58.736Z,100940.00
2023-01-26T03:58:42.559Z,100936.41
2023-01-26T04:01:28.158Z,100923.56
2023-01-26T04:04:33.020Z,100926.28
2023-01-26T04:07:35.168Z,100907.28
2023-01-26T04:10:20.980Z,100915.97
2023-01-26T04:13:22.381Z,100906.41
2023-01-26T04:16:29.559Z,100902.88
2023-01-26T04:19:31.156Z,100898.50
2023-01-26T04:22:15.181Z,100908.88
2023-01-26T04:25:01.201Z,100909.88
2023-01-26T04:27:48.560Z,100885.53
2023-01-26T04:30:32.716Z,100906.09
2023-01-26T04:33:16.447Z,100911.47
2023-01-26T04:36:04.732Z,100900.88
2023-01-26T04:38:49.602Z,100894.84
2023-01-26T04:41:36.083Z,100866.34
2023-01-26T04:44:27.623Z,100906.13
2023-01-26T04:47:11.627Z,100900.31
2023-01-26T04:49:55.854Z,100898.50
2023-01-26T04:52:41.042Z,100902.81
2023-01-26T04:55:25.136Z,100901.09
2023-01-26T04:58:09.069Z,100899.31
2023-01-26T05:00:55.451Z,100892.25
2023-01-26T05:03:39.214Z,100899.47
2023-01-26T05:06:23.204Z,100902.81
2023-01-26T05:09:07.901Z,100891.78
2023-01-26T05:11:53.749Z,100886.75
2023-01-26T05:14:56.084Z,100897.22
2023-01-26T05:18:02.769Z,100858.97
2023-01-26T05:21:05.299Z,100893.41
2023-01-26T05:23:56.520Z,100894.19
2023-01-26T05:27:15.242Z,100887.13
2023-01-26T05:30:00.668Z,100887.97
2023-01-26T05:32:47.117Z,100893.06
2023-01-26T05:35:33.532Z,100909.06
2023-01-26T05:38:17.802Z,100910.09
2023-01-26T05:41:02.200Z,100901.34
2023-01-26T05:43:52.571Z,100912.59
2023-01-26T05:46:51.462Z,100911.06
2023-01-26T05:49:35.484Z,100911.19
2023-01-26T05:52:21.933Z,100901.72
2023-01-26T05:55:08.148Z,100903.50
2023-01-26T05:57:52.052Z,100908.69
2023-01-26T06:00:35.911Z,100908.72
2023-01-26T06:03:25.805Z,100912.22
2023-01-26T06:06:09.522Z,100913.03
2023-01-26T06:09:01.108Z,100906.97
2023-01-26T06:11:47.785Z,100865.38
2023-01-26T06:14:59.316Z,100881.81
2023-01-26T06:17:53.422Z,100893.03
2023-01-26T06:20:37.321Z,100884.28
2023-01-26T06:23:22.764Z,100891.16
2023-01-26T06:26:10.764Z,100884.03
2023-01-26T06:28:55.763Z,100873.44
2023-01-26T06:31:41.706Z,100885.63
2023-01-26T06:34:28.813Z,100877.41
2023-01-26T06:37:14.181Z,100872.22
2023-01-26T06:39:58.547Z,100873.59
2023-01-26T06:42:48.926Z,100843.06
2023-01-26T06:45:34.918Z,100852.97
2023-01-26T06:48:19.135Z,100884.00
2023-01-26T06:51:26.328Z,100821.19
2023-01-26T06:54:12.026Z,100835.31
2023-01-26T06:57:17.824Z,100836.31
2023-01-26T07:00:24.214Z,100868.00
2023-01-26T07:03:13.784Z,100869.25
2023-01-26T07:05:57.851Z,100801.22
2023-01-26T07:08:42.032Z,100817.06
2023-01-26T07:11:26.522Z,100829.00
2023-01-26T07:14:10.292Z,100847.94
2023-01-26T07:16:55.496Z,100847.06
2023-01-26T07:19:39.284Z,100853.75
2023-01-26T07:22:23.133Z,100854.66
2023-01-26T07:25:07.415Z,100849.97
2023-01-26T07:27:56.953Z,100855.28
2023-01-26T07:30:40.805Z,100845.03
2023-01-26T07:33:26.133Z,100848.47
2023-01-26T07:36:11.234Z,100845.41
2023-01-26T07:38:55.153Z,100845.97
2023-01-26T07:41:39.055Z,100836.88
2023-01-26T07:44:41.980Z,100832.84
2023-01-26T07:47:25.772Z,100832.03
2023-01-26T07:50:13.892Z,100822.69
2023-01-26T07:52:57.708Z,100821.25
2023-01-26T07:55:41.582Z,100816.31
2023-01-26T07:58:25.339Z,100802.47
2023-01-26T08:01:11.213Z,100796.59
2023-01-26T08:03:55.401Z,100792.78
2023-01-26T08:06:40.659Z,100788.47
2023-01-26T08:09:24.896Z,100794.25
2023-01-26T08:12:08.761Z,100782.44
2023-01-26T08:14:52.681Z,100773.81
2023-01-26T08:17:36.500Z,100771.84
2023-01-26T08:20:20.701Z,100763.88
2023-01-26T08:23:05.857Z,100801.72
2023-01-26T08:25:49.684Z,100822.00
2023-01-26T08:28:33.560Z,100819.13
2023-01-26T08:31:20.411Z,100830.59
2023-01-26T08:34:04.649Z,100825.53
2023-01-26T08:36:48.452Z,100832.91
2023-01-26T08:39:33.578Z,100824.84
2023-01-26T08:42:17.402Z,100819.50
2023-01-26T08:45:01.321Z,100806.34
2023-01-26T08:47:50.533Z,100798.72
2023-01-26T08:50:34.265Z,100798.66
2023-01-26T08:53:18.177Z,100800.22
2023-01-26T08:56:04.824Z,100796.75
2023-01-26T08:58:48.923Z,100791.25
2023-01-26T09:01:32.752Z,100789.31
2023-01-26T09:04:16.635Z,100792.34
2023-01-26T09:07:00.705Z,100736.19
2023-01-26T09:09:45.070Z,100734.09
2023-01-26T09:12:30.452Z,100770.00
2023-01-26T09:15:14.525Z,100728.06
2023-01-26T09:18:00.739Z,100717.63
2023-01-26T09:20:45.888Z,100711.88
2023-01-26T09:23:29.897Z,100710.44
2023-01-26T09:26:14.085Z,100700.34
2023-01-26T09:28:59.611Z,100744.13
2023-01-26T09:31:43.910Z,100735.50
2023-01-26T09:34:28.754Z,100724.84
2023-01-26T09:37:12.707Z,100685.81
2023-01-26T09:39:56.695Z,100686.41
2023-01-26T09:42:56.791Z,100695.22
2023-01-26T09:45:50.331Z,100674.88
2023-01-26T09:48:42.596Z,100678.19
2023-01-26T09:51:33.501Z,100704.81
2023-01-26T09:54:27.959Z,100660.44
2023-01-26T09:57:15.659Z,100695.13
2023-01-26T10:00:05.773Z,100679.28
2023-01-26T10:03:06.510Z,100654.41
2023-01-26T10:05:55.211Z,100620.97
2023-01-26T10:09:22.620Z,100640.72
2023-01-26T10:12:10.046Z,100624.03
2023-01-26T10:14:57.615Z,100620.16
2023-01-26T10:17:44.321Z,100622.09
2023-01-26T10:20:34.447Z,100612.41
2023-01-26T10:23:23.079Z,100626.97
2023-01-26T10:26:14.461Z,100575.31
2023-01-26T10:28:58.985Z,100641.34
2023-01-26T10:31:43.058Z,100602.13
2023-01-26T10:34:28.904Z,100581.81
2023-01-26T10:37:21.881Z,100617.22
2023-01-26T10:40:07.983Z,100557.34
2023-01-26T10:43:00.059Z,100584.03
2023-01-26T10:45:47.945Z,100556.47
2023-01-26T10:48:32.028Z,100542.91
2023-01-26T10:51:17.526Z,100554.03
2023-01-26T10:54:25.557Z,100599.97
2023-01-26T10:57:18.717Z,100602.22
2023-01-26T11:00:08.327Z,100597.38
2023-01-26T11:02:54.707Z,100586.28
2023-01-26T11:05:38.488Z,100588.63
2023-01-26T11:08:36.048Z,100573.31
2023-01-26T11:11:27.781Z,100580.66
2023-01-26T11:14:13.939Z,100576.84
2023-01-26T11:17:09.916Z,100580.53
2023-01-26T11:20:08.930Z,100544.91
2023-01-26T11:23:01.750Z,100579.94
2023-01-26T11:26:02.942Z,100589.47
2023-01-26T11:29:01.974Z,100578.44
2023-01-26T11:31:57.551Z,100550.56
2023-01-26T11:34:52.623Z,100585.53
2023-01-26T11:37:47.205Z,100567.28
2023-01-26T11:40:39.025Z,100560.50
2023-01-26T11:43:49.505Z,100568.16
2023-01-26T11:46:55.783Z,100558.38
2023-01-26T11:49:56.363Z,100558.38
2023-01-26T11:52:52.767Z,100560.97
2023-01-26T11:55:52.306Z,100562.59
2023-01-26T11:58:41.716Z,100569.03
2023-01-26T12:01:30.195Z,100559.06
2023-01-26T12:04:20.250Z,100548.44
2023-01-26T12:07:12.163Z,100560.69
2023-01-26T12:09:56.384Z,100557.69
2023-01-26T12:12:48.041Z,100537.91
2023-01-26T12:15:35.775Z,100534.41
2023-01-26T12:18:32.269Z,100546.72
2023-01-26T12:21:24.264Z,100541.50
2023-01-26T12:24:39.128Z,100545.63
2023-01-26T12:27:28.032Z,100548.13
2023-01-26T12:30:28.421Z,100543.44
2023-01-26T12:33:12.640Z,100511.69
2023-01-26T12:36:07.555Z,100542.78
2023-01-26T12:39:08.780Z,100548.78
2023-01-26T12:42:14.300Z,100534.34
2023-01-26T12:45:02.153Z,100522.06
2023-01-26T12:47:53.440Z,100525.78
2023-01-26T12:50:41.003Z,100506.00
2023-01-26T12:53:32.100Z,100513.44
2023-01-26T12:56:25.171Z,100516.06
2023-01-26T12:59:38.661Z,100518.75
2023-01-26T13:02:29.612Z,100508.63
2023-01-26T13:05:25.764Z,100507.22
2023-01-26T13:08:56.961Z,100518.94
2023-01-26T13:11:50.845Z,100498.34
2023-01-26T13:14:39.922Z,100489.94
2023-01-26T13:17:50.868Z,100444.34
2023-01-26T13:20:52.639Z,100466.81
2023-01-26T13:23:43.966Z,100460.47
2023-01-26T13:26:54.221Z,100458.31
2023-01-26T13:29:54.864Z,100404.78
2023-01-26T13:33:03.296Z,100448.31
2023-01-26T13:35:48.148Z,100452.84
2023-01-26T13:38:36.859Z,100441.78
2023-01-26T13:41:22.396Z,100446.03
2023-01-26T13:44:15.558Z,100442.34
2023-01-26T13:47:03.268Z,100454.66
2023-01-26T13:49:47.174Z,100465.50
2023-01-26T13:52:33.875Z,100447.59
2023-01-26T13:55:25.733Z,100409.72
2023-01-26T13:58:13.012Z,100413.44
2023-01-26T14:01:03.383Z,100445.75
2023-01-26T14:03:47.649Z,100436.75
2023-01-26T14:06:31.830Z,100429.78
2023-01-26T14:09:16.792Z,100416.47
2023-01-26T14:12:03.233Z,100428.75
2023-01-26T14:14:51.134Z,100431.59
2023-01-26T14:17:38.095Z,100426.56
2023-01-26T14:20:27.558Z,100422.75
2023-01-26T14:23:14.856Z,100402.41
2023-01-26T14:26:02.001Z,100424.53
2023-01-26T14:28:46.884Z,100423.13
2023-01-26T14:31:32.413Z,100413.06
2023-01-26T14:34:22.488Z,100413.09
2023-01-26T14:37:08.730Z,100426.56
2023-01-26T14:40:27.790Z,100427.91
2023-01-26T14:43:13.857Z,100423.94
2023-01-26T14:46:01.578Z,100431.25
2023-01-26T14:48:48.945Z,100429.31
2023-01-26T14:51:35.373Z,100417.44
2023-01-26T14:54:26.395Z,100426.56
2023-01-26T14:57:17.994Z,100420.44
2023-01-26T15:00:06.443Z,100422.84
2023-01-26T15:02:51.115Z,100406.28
2023-01-26T15:05:37.556Z,100417.56
2023-01-26T15:08:24.435Z,100420.09
2023-01-26T15:11:25.879Z,100411.59
2023-01-26T15:14:31.789Z,100412.59
2023-01-26T15:17:29.574Z,100402.69
2023-01-26T15:20:40.721Z,100400.44
2023-01-26T15:23:31.457Z,100390.91
2023-01-26T15:26:24.408Z,100345.72
2023-01-26T15:29:23.558Z,100373.22
2023-01-26T15:32:07.632Z,100392.63
2023-01-26T15:35:08.703Z,100362.25
2023-01-26T15:38:02.044Z,100377.72
2023-01-26T15:40:47.259Z,100356.50
2023-01-26T15:43:31.076Z,100380.00
2023-01-26T15:46:14.832Z,100372.66
2023-01-26T15:48:58.789Z,100366.13
2023-01-26T15:51:42.577Z,100364.78
2023-01-26T15:54:26.473Z,100372.22
2023-01-26T15:57:12.222Z,100323.81
2023-01-26T15:59:56.092Z,100373.56
2023-01-26T16:02:39.995Z,100369.53
2023-01-26T16:05:25.720Z,100370.72
2023-01-26T16:08:10.366Z,100361.91
2023-01-26T16:10:56.842Z,100366.38
2023-01-26T16:13:46.459Z,100356.19
2023-01-26T16:16:34.938Z,100362.94
2023-01-26T16:19:33.745Z,100370.03
2023-01-26T16:22:18.971Z,100358.34
2023-01-26T16:25:02.869Z,100350.81
2023-01-26T16:27:46.834Z,100357.94
2023-01-26T16:30:31.987Z,100342.03
2023-01-26T16:33:20.443Z,100330.06
2023-01-26T16:36:04.449Z,100332.41
2023-01-26T16:38:49.096Z,100287.22
2023-01-26T16:41:34.342Z,100335.56
2023-01-26T16:44:19.642Z,100326.91
2023-01-26T16:47:05.980Z,100319.09
2023-01-26T16:49:49.899Z,100277.84
2023-01-26T16:52:35.521Z,100318.03
2023-01-26T16:55:20.307Z,100298.53
2023-01-26T16:58:04.095Z,100303.19
2023-01-26T17:00:47.971Z,100285.50
2023-01-26T17:03:33.569Z,100287.19
2023-01-26T17:06:18.813Z,100315.72
2023-01-26T17:09:02.665Z,100318.03
2023-01-26T17:11:46.529Z,100310.31
2023-01-26T17:14:30.328Z,100297.44
2023-01-26T17:17:14.217Z,100285.88
2023-01-26T17:20:16.504Z,100281.25
2023-01-26T17:23:01.970Z,100279.31
2023-01-26T17:25:45.756Z,100282.47
2023-01-26T17:28:29.522Z,100276.31
2023-01-26T17:31:17.619Z,100271.06
2023-01-26T17:34:01.576Z,100277.09
2023-01-26T17:36:46.924Z,100262.88
2023-01-26T17:39:30.769Z,100257.03
2023-01-26T17:42:14.959Z,100253.06
2023-01-26T17:44:58.825Z,100246.22
2023-01-26T17:47:43.640Z,100257.03
2023-01-26T17:50:27.493Z,100244.81
2023-01-26T17:53:12.684Z,100260.03
2023-01-26T17:55:56.522Z,100243.97
2023-01-26T17:58:41.664Z,100236.97
2023-01-26T18:01:28.134Z,100212.09
2023-01-26T18:04:12.256Z,100192.09
2023-01-26T18:06:56.327Z,100230.59
2023-01-26T18:09:41.771Z,100187.75
2023-01-26T18:12:25.877Z,100173.59
2023-01-26T18:15:10.260Z,100164.75
2023-01-26T18:17:54.474Z,100183.78
2023-01-26T18:20:38.450Z,100213.00
2023-01-26T18:23:23.889Z,100215.63
2023-01-26T18:26:09.190Z,100201.81
2023-01-26T18:28:53.537Z,100209.81
2023-01-26T18:31:40.904Z,100217.41
2023-01-26T18:34:25.032Z,100207.13
2023-01-26T18:37:09.813Z,100213.78
2023-01-26T18:39:55.082Z,100205.69
2023-01-26T18:42:40.584Z,100200.75
2023-01-26T18:45:26.391Z,100201.41
2023-01-26T18:48:10.647Z,100200.63
2023-01-26T18:50:54.611Z,100203.78
2023-01-26T18:53:40.349Z,100195.78
2023-01-26T18:56:24.797Z,100170.56
2023-01-26T18:59:10.917Z,100160.91
2023-01-26T19:01:55.564Z,100176.31
2023-01-26T19:04:40.971Z,100173.22
2023-01-26T19:07:25.333Z,100188.03
2023-01-26T19:10:10.549Z,100148.81
2023-01-26T19:12:56.231Z,100160.66
2023-01-26T19:15:45.320Z,100157.25
2023-01-26T19:18:29.543Z,100155.06
2023-01-26T19:21:14.432Z,100127.53
2023-01-26T19:24:02.888Z,100164.94
2023-01-26T19:26:47.029Z,100163.88
2023-01-26T19:29:31.168Z,100163.75
2023-01-26T19:32:16.789Z,100155.59
2023-01-26T19:35:00.898Z,100113.28
2023-01-26T19:37:47.185Z,100136.34
2023-01-26T19:40:32.161Z,100123.75
2023-01-26T19:43:19.562Z,100062.03
2023-01-26T19:46:05.911Z,100100.41
2023-01-26T19:48:51.894Z,100094.75
2023-01-26T19:51:36.003Z,100055.63
2023-01-26T19:54:20.209Z,100107.00
2023-01-26T19:57:04.915Z,100098.28
2023-01-26T19:59:49.267Z,100114.31
2023-01-26T20:02:34.519Z,100101.88
2023-01-26T20:05:21.473Z,100056.84
2023-01-26T20:08:06.669Z,100107.56
2023-01-26T20:10:50.802Z,100046.63
2023-01-26T20:13:36.084Z,100064.69
2023-01-26T20:16:20.134Z,100054.66
2023-01-26T20:19:05.028Z,100090.72
2023-01-26T20:21:50.961Z,100107.97
2023-01-26T20:24:34.813Z,100099.69
2023-01-26T20:27:19.468Z,100106.75
2023-01-26T20:30:03.381Z,100078.53
2023-01-26T20:32:47.932Z,100079.44
2023-01-26T20:35:32.458Z,100082.81
2023-01-26T20:38:17.569Z,100054.34
2023-01-26T20:41:01.418Z,100089.53
2023-01-26T20:43:59.643Z,100069.66
2023-01-26T20:46:44.779Z,99933.31
2023-01-26T20:49:28.814Z,100024.41
2023-01-26T20:52:12.725Z,100025.44
2023-01-26T20:54:58.015Z,100032.59
2023-01-26T20:57:41.999Z,100028.53
2023-01-26T21:00:26.058Z,100000.81
2023-01-26T21:03:10.305Z,100003.50
2023-01-26T21:05:54.589Z,100011.63
2023-01-26T21:08:38.900Z,100000.97
2023-01-26T21:11:26.402Z,100001.41
2023-01-26T21:14:13.553Z,99941.94
2023-01-26T21:16:57.785Z,99961.94
2023-01-26T21:19:41.795Z,99922.69
2023-01-26T21:22:25.678Z,99862.59
2023-01-26T21:25:10.889Z,99931.06
2023-01-26T21:27:56.110Z,99931.00
2023-01-26T21:30:39.988Z,99908.28
2023-01-26T21:33:23.806Z,99931.66
2023-01-26T21:36:09.517Z,99938.50
2023-01-26T21:38:55.868Z,99950.16
2023-01-26T21:41:59.241Z,99952.31
2023-01-26T21:45:02.186Z,99951.38
2023-01-26T21:48:07.127Z,99942.56
2023-01-26T21:51:13.921Z,99941.66
2023-01-26T21:53:57.650Z,99943.09
2023-01-26T21:56:42.030Z,99936.16
2023-01-26T21:59:26.206Z,99927.78
2023-01-26T22:02:11.855Z,99910.00
2023-01-26T22:04:55.844Z,99938.22
2023-01-26T22:07:39.582Z,99929.03
2023-01-26T22:10:23.425Z,99927.50
2023-01-26T22:13:07.393Z,99912.09
2023-01-26T22:15:51.573Z,99911.69
2023-01-26T22:18:37.013Z,99908.22
2023-01-26T22:21:21.812Z,99886.34
2023-01-26T22:24:06.691Z,99876.91
2023-01-26T22:26:50.577Z,99882.28
2023-01-26T22:29:34.367Z,99889.25
2023-01-26T22:32:18.106Z,99880.97
2023-01-26T22:35:03.790Z,99873.88
2023-01-26T22:37:47.743Z,99843.16
2023-01-26T22:40:31.670Z,99790.19
2023-01-26T22:43:15.616Z,99796.13
2023-01-26T22:46:03.498Z,99787.47
2023-01-26T22:48:47.467Z,99771.97
2023-01-26T22:51:37.115Z,99790.22
2023-01-26T22:54:21.131Z,99800.19
2023-01-26T22:57:05.169Z,99769.69
2023-01-26T22:59:49.426Z,99786.97
2023-01-26T23:02:33.204Z,99789.09
2023-01-26T23:05:17.271Z,99782.91
2023-01-26T23:08:03.291Z,99797.44
2023-01-26T23:10:47.083Z,99790.88
2023-01-26T23:13:31.280Z,99793.22
2023-01-26T23:16:15.279Z,99771.69
2023-01-26T23:18:59.962Z,99801.50
2023-01-26T23:21:43.730Z,99792.03
2023-01-26T23:24:29.067Z,99786.88
2023-01-26T23:27:12.876Z,99783.09
2023-01-26T23:29:56.640Z,99782.69
2023-01-26T23:32:40.468Z,99764.06
2023-01-26T23:35:26.463Z,99785.41
2023-01-26T23:38:11.233Z,99782.03
2023-01-26T23:40:56.730Z,99765.88
2023-01-26T23:43:40.921Z,99749.25
2023-01-26T23:46:24.811Z,99779.00
2023-01-26T23:49:08.616Z,99778.97
2023-01-26T23:51:52.491Z,99776.91
2023-01-26T23:54:36.284Z,99768.03
2023-01-26T23:57:21.422Z,99764.13
